Time;durP1;ratioP1;P1;durP2;ratioP2;P2;SDS_P1;SDS_P2;PMS_P1;PMS_P2;Temp;Humidity;BMP_temperature;BMP_pressure;BME280_temperature;BME280_humidity;BME280_pressure;Samples;Min_cycle;Max_cycle;Signal;HPM_P1;HPM_P2
2023/09/20 00:02:13;;;;;;;466.38;446.02;;;;;;;23.84;50.01;98537.34;4913845;28;103291;-65
2023/09/20 00:04:43;;;;;;;469.92;449.83;;;;;;;23.91;49.82;98540.94;4908448;28;103316;-66
2023/09/20 00:07:11;;;;;;;485.23;463.88;;;;;;;24.12;49.28;98543.56;4916518;28;102945;-65
2023/09/20 00:09:40;;;;;;;477.30;456.30;;;;;;;24.06;49.97;98536.22;4910976;28;102751;-65
2023/09/20 00:12:09;;;;;;;509.63;486.42;;;;;;;23.68;50.51;98535.81;4920784;28;104079;-65
2023/09/20 00:14:37;;;;;;;591.90;564.13;;;;;;;23.93;50.18;98533.47;4912477;28;103227;-65
2023/09/20 00:17:06;;;;;;;585.45;558.75;;;;;;;24.30;49.75;98530.34;4916864;28;102701;-66
2023/09/20 00:19:34;;;;;;;583.83;557.22;;;;;;;24.47;49.24;98520.03;4914411;28;104018;-66
2023/09/20 00:22:03;;;;;;;569.28;544.30;;;;;;;24.62;48.53;98524.22;4907624;28;104270;-66
2023/09/20 00:24:31;;;;;;;637.88;607.17;;;;;;;24.30;49.74;98524.97;4910620;28;104209;-66
2023/09/20 00:26:59;;;;;;;700.50;665.25;;;;;;;23.91;50.92;98524.75;4908933;28;102678;-66
2023/09/20 00:29:28;;;;;;;741.57;705.47;;;;;;;24.20;49.98;98519.09;4914776;28;102563;-65
2023/09/20 00:31:56;;;;;;;658.60;626.88;;;;;;;24.01;49.98;98531.44;4909836;28;103632;-65
2023/09/20 00:34:27;;;;;;;677.92;646.10;;;;;;;24.37;49.10;98517.69;4907546;28;104190;-66
2023/09/20 00:36:55;;;;;;;667.15;635.80;;;;;;;24.35;49.49;98521.63;4915064;28;102819;-65
2023/09/20 00:39:23;;;;;;;582.97;556.97;;;;;;;24.53;49.19;98514.66;4915853;28;102775;-65
2023/09/20 00:41:51;;;;;;;578.20;552.45;;;;;;;24.53;48.99;98503.84;4927233;28;104656;-66
2023/09/20 00:44:19;;;;;;;561.25;536.92;;;;;;;24.51;48.60;98505.91;4914358;28;103285;-65
2023/09/20 00:46:51;;;;;;;557.60;532.17;;;;;;;24.52;49.24;98506.75;4913748;28;103393;-65
2023/09/20 00:49:20;;;;;;;527.53;504.17;;;;;;;24.53;49.05;98509.25;4912954;28;103975;-65
2023/09/20 00:51:49;;;;;;;579.13;551.03;;;;;;;23.82;50.51;98515.97;4912569;28;103236;-65
2023/09/20 00:54:17;;;;;;;842.10;795.88;;;;;;;23.63;51.65;98512.13;4911798;28;103278;-65
2023/09/20 00:56:45;;;;;;;855.47;810.40;;;;;;;23.54;51.35;98505.25;4912673;28;102641;-65
2023/09/20 00:59:15;;;;;;;1139.70;999.90;;;;;;;22.95;53.80;98507.44;4919570;28;104064;-65
2023/09/20 01:01:43;;;;;;;1283.93;999.90;;;;;;;22.99;54.24;98497.09;4935428;27;104848;-66
2023/09/20 01:04:13;;;;;;;1417.65;999.90;;;;;;;22.33;56.31;98503.66;4925020;28;103370;-65
2023/09/20 01:06:42;;;;;;;1376.05;999.90;;;;;;;22.89;53.90;98496.59;4917566;28;102672;-66
2023/09/20 01:09:10;;;;;;;1473.00;999.90;;;;;;;22.61;55.32;98504.59;4914453;28;103725;-66
2023/09/20 01:11:38;;;;;;;1414.18;999.90;;;;;;;22.99;54.16;98497.09;4909874;28;104118;-65
2023/09/20 01:14:06;;;;;;;1444.35;999.90;;;;;;;22.93;54.52;98503.28;4915823;28;103270;-66
2023/09/20 01:16:34;;;;;;;1444.07;999.90;;;;;;;22.85;54.63;98503.41;4912299;28;102739;-66
2023/09/20 01:19:04;;;;;;;1417.20;999.90;;;;;;;22.99;54.21;98505.16;4922356;28;102795;-65
2023/09/20 01:21:42;;;;;;;1442.43;999.90;;;;;;;22.73;55.23;98508.47;4919210;28;102662;-66
2023/09/20 01:24:17;;;;;;;1403.82;999.90;;;;;;;23.29;53.58;98493.22;4936195;27;104099;-66
2023/09/20 01:26:48;;;;;;;1357.03;999.90;;;;;;;23.45;53.08;98497.47;4927044;28;102612;-66
2023/09/20 01:29:17;;;;;;;1288.78;999.90;;;;;;;23.59;52.59;98500.06;4922705;28;103567;-66
2023/09/20 01:31:47;;;;;;;1199.33;999.90;;;;;;;23.66;52.11;98505.53;4917276;28;103781;-65
2023/09/20 01:34:15;;;;;;;1072.63;999.90;;;;;;;23.76;51.44;98494.34;4912467;28;103247;-66
2023/09/20 01:36:44;;;;;;;1216.05;999.90;;;;;;;23.17;53.42;98499.31;4922204;28;102777;-65
2023/09/20 01:39:12;;;;;;;1178.78;999.90;;;;;;;23.20;52.71;98494.38;4913946;28;102926;-65
2023/09/20 01:41:40;;;;;;;1177.53;999.90;;;;;;;23.51;52.36;98494.00;4911746;28;103420;-66
2023/09/20 01:44:08;;;;;;;1146.40;999.90;;;;;;;23.34;52.79;98490.75;4929935;28;103399;-65
2023/09/20 01:46:36;;;;;;;1183.22;999.90;;;;;;;23.15;53.17;98496.84;4914951;28;102752;-65
2023/09/20 01:49:06;;;;;;;1346.93;999.90;;;;;;;22.63;54.92;98499.00;4913238;28;103207;-65
2023/09/20 01:51:34;;;;;;;1285.30;999.90;;;;;;;23.03;53.82;98490.28;4908392;28;103382;-65
2023/09/20 01:54:04;;;;;;;1297.00;999.90;;;;;;;22.90;53.97;98492.88;4947771;28;104443;-65
2023/09/20 01:56:33;;;;;;;1399.82;999.90;;;;;;;22.66;55.53;98495.94;4928450;27;102669;-65
2023/09/20 01:59:05;;;;;;;1421.05;999.90;;;;;;;22.76;54.89;98496.47;4930459;28;102925;-65
2023/09/20 02:01:37;;;;;;;1790.40;999.90;;;;;;;22.41;57.56;98490.91;4912324;28;103386;-65
2023/09/20 02:04:06;;;;;;;1999.90;999.90;;;;;;;21.83;58.95;98491.84;4921030;28;103018;-65
2023/09/20 02:06:34;;;;;;;1999.90;999.90;;;;;;;22.14;57.13;98491.66;4910986;28;102720;-66
2023/09/20 02:09:04;;;;;;;1999.90;999.90;;;;;;;22.30;57.77;98491.41;4917013;28;103385;-66
2023/09/20 02:11:33;;;;;;;1999.90;999.90;;;;;;;22.54;56.64;98477.59;4926873;28;104317;-65
2023/09/20 02:14:01;;;;;;;1986.45;999.90;;;;;;;22.81;55.74;98484.09;4929245;28;103205;-65
2023/09/20 02:16:32;;;;;;;1887.38;999.90;;;;;;;22.82;55.95;98488.44;4927826;28;102644;-65
2023/09/20 02:19:00;;;;;;;1646.70;999.90;;;;;;;22.68;56.07;98483.16;4913846;28;104808;-65
2023/09/20 02:21:28;;;;;;;1707.97;999.90;;;;;;;22.78;56.04;98489.03;4924217;28;103533;-66
2023/09/20 02:23:58;;;;;;;1515.93;999.90;;;;;;;22.95;54.65;98482.34;4911256;28;103170;-65
2023/09/20 02:26:26;;;;;;;1461.43;999.90;;;;;;;22.69;55.27;98477.56;4923276;28;103177;-65
2023/09/20 02:28:57;;;;;;;1411.90;999.90;;;;;;;22.99;54.45;98475.53;4910847;28;104094;-65
2023/09/20 02:31:25;;;;;;;1416.45;999.90;;;;;;;22.75;55.09;98481.34;4927304;28;103437;-65
2023/09/20 02:33:55;;;;;;;1415.95;999.90;;;;;;;23.06;54.67;98482.66;4906541;28;103299;-65
2023/09/20 02:36:22;;;;;;;1381.80;999.90;;;;;;;23.16;54.36;98482.31;4933985;28;103518;-65
2023/09/20 02:38:50;;;;;;;1422.18;999.90;;;;;;;22.65;56.23;98475.47;4908180;28;102909;-66
2023/09/20 02:41:18;;;;;;;1450.77;999.90;;;;;;;22.79;55.74;98475.38;4923973;28;104585;-65
2023/09/20 02:43:47;;;;;;;1456.35;999.90;;;;;;;22.97;55.00;98483.00;4928720;28;103373;-65
2023/09/20 02:46:18;;;;;;;1389.40;999.90;;;;;;;23.16;54.06;98476.13;4908084;28;102730;-66
2023/09/20 02:48:46;;;;;;;1549.13;999.90;;;;;;;22.45;56.57;98483.31;4926872;28;104052;-65
2023/09/20 02:51:13;;;;;;;1735.65;999.90;;;;;;;22.53;56.41;98486.69;4907677;28;103508;-65
2023/09/20 02:53:41;;;;;;;1822.63;999.90;;;;;;;22.39;56.89;98474.13;4903649;28;104283;-65
2023/09/20 02:56:11;;;;;;;1683.70;999.90;;;;;;;22.71;56.08;98472.00;4908393;28;102676;-65
2023/09/20 02:58:40;;;;;;;1729.47;999.90;;;;;;;22.68;55.82;98467.00;4909961;28;102934;-66
2023/09/20 03:01:09;;;;;;;1551.35;999.90;;;;;;;22.88;55.47;98476.06;4909488;28;104376;-66
2023/09/20 03:03:39;;;;;;;1403.07;999.90;;;;;;;22.92;54.77;98470.13;4909673;28;103253;-66
2023/09/20 03:06:11;;;;;;;1415.83;999.90;;;;;;;22.99;54.60;98464.75;4908690;28;103040;-65
2023/09/20 03:08:44;;;;;;;1420.03;999.90;;;;;;;22.62;55.33;98462.34;4910989;28;103635;-66
2023/09/20 03:11:21;;;;;;;1625.53;999.90;;;;;;;22.38;56.83;98460.84;4914867;28;103220;-66
2023/09/20 03:13:50;;;;;;;1530.55;999.90;;;;;;;22.73;55.96;98464.56;4917455;28;103330;-66
2023/09/20 03:16:19;;;;;;;1522.60;999.90;;;;;;;22.78;55.61;98462.09;4911112;28;102723;-66
2023/09/20 03:18:50;;;;;;;1418.03;999.90;;;;;;;23.06;54.67;98449.50;4913304;28;103683;-65
2023/09/20 03:21:21;;;;;;;1393.73;999.90;;;;;;;23.26;54.07;98452.34;4916831;28;105597;-65
2023/09/20 03:23:49;;;;;;;1351.30;999.90;;;;;;;23.29;53.73;98455.47;4924702;28;106067;-65
2023/09/20 03:26:18;;;;;;;1335.07;999.90;;;;;;;23.30;53.99;98446.34;4923865;28;102819;-65
2023/09/20 03:28:48;;;;;;;1321.95;999.90;;;;;;;23.32;53.71;98448.84;4930336;28;103673;-65
2023/09/20 03:31:22;;;;;;;1287.93;999.90;;;;;;;23.37;53.57;98452.63;4920578;28;104258;-65
2023/09/20 03:33:52;;;;;;;1339.57;999.90;;;;;;;22.77;55.29;98446.97;4914425;28;102990;-65
2023/09/20 03:36:25;;;;;;;1362.83;999.90;;;;;;;23.12;54.42;98447.88;4916172;28;103171;-65
2023/09/20 03:38:55;;;;;;;1422.68;999.90;;;;;;;22.71;56.10;98445.06;4913761;28;104240;-65
2023/09/20 03:41:24;;;;;;;1607.35;999.90;;;;;;;22.67;56.25;98439.25;4921088;28;104184;-65
2023/09/20 03:43:52;;;;;;;1454.30;999.90;;;;;;;22.71;55.35;98440.50;4910599;28;103614;-65
2023/09/20 03:46:21;;;;;;;1664.47;999.90;;;;;;;22.82;55.91;98439.16;4927057;28;102709;-65
2023/09/20 03:48:49;;;;;;;1767.57;999.90;;;;;;;22.64;56.21;98438.78;4913626;28;102970;-65
2023/09/20 03:51:19;;;;;;;1884.23;999.90;;;;;;;22.43;56.27;98435.03;4930838;28;104301;-65
2023/09/20 03:53:49;;;;;;;1860.75;999.90;;;;;;;22.58;56.44;98436.81;4943731;27;105176;-65
2023/09/20 03:56:21;;;;;;;1528.97;999.90;;;;;;;23.02;54.63;98432.06;4925115;28;103078;-64
2023/09/20 03:58:49;;;;;;;1441.05;999.90;;;;;;;23.15;54.15;98426.78;4912988;28;106755;-65
2023/09/20 04:01:17;;;;;;;1417.90;999.90;;;;;;;23.14;54.13;98425.09;4906766;28;103372;-65
2023/09/20 04:03:46;;;;;;;1531.47;999.90;;;;;;;22.21;56.96;98422.59;4917409;28;103193;-65
2023/09/20 04:06:16;;;;;;;1508.10;999.90;;;;;;;22.76;55.86;98423.78;4907948;28;103346;-65
2023/09/20 04:08:45;;;;;;;1501.40;999.90;;;;;;;22.71;56.12;98420.84;4910073;28;102726;-65
2023/09/20 04:11:15;;;;;;;1464.78;999.90;;;;;;;22.85;55.18;98430.69;4911770;28;104322;-65
2023/09/20 04:13:43;;;;;;;1408.60;999.90;;;;;;;23.07;54.58;98424.25;4908652;28;103324;-65
2023/09/20 04:16:11;;;;;;;1368.22;999.90;;;;;;;23.12;54.30;98427.16;4913076;28;103772;-65
2023/09/20 04:18:39;;;;;;;1339.18;999.90;;;;;;;23.15;54.04;98429.47;4931291;28;104136;-65
2023/09/20 04:21:08;;;;;;;1344.15;999.90;;;;;;;23.21;54.20;98431.38;4930992;28;104296;-65
2023/09/20 04:23:36;;;;;;;1338.88;999.90;;;;;;;23.09;54.64;98423.00;4914574;28;103306;-65
2023/09/20 04:26:05;;;;;;;1363.40;999.90;;;;;;;23.04;54.88;98427.31;4908672;28;103146;-65
2023/09/20 04:28:36;;;;;;;1355.20;999.90;;;;;;;23.01;54.63;98425.00;4912808;28;102991;-65
2023/09/20 04:31:05;;;;;;;1373.65;999.90;;;;;;;23.11;54.70;98425.50;4906386;28;103548;-65
2023/09/20 04:33:35;;;;;;;1358.32;999.90;;;;;;;23.18;54.04;98420.16;4908587;28;103240;-67
2023/09/20 04:36:04;;;;;;;1334.33;999.90;;;;;;;23.29;54.32;98423.13;4911896;28;102691;-65
2023/09/20 04:38:33;;;;;;;1301.57;999.90;;;;;;;23.38;53.71;98413.88;4933043;28;103033;-66
2023/09/20 04:41:04;;;;;;;1319.70;999.90;;;;;;;23.30;53.70;98403.22;4921227;28;104924;-65
2023/09/20 04:43:34;;;;;;;1353.27;999.90;;;;;;;22.59;55.10;98406.19;4906195;28;104019;-65
2023/09/20 04:46:02;;;;;;;1813.78;999.90;;;;;;;22.06;58.32;98411.06;4911499;28;102940;-65
2023/09/20 04:48:31;;;;;;;1999.90;999.90;;;;;;;22.35;57.55;98408.25;4913860;28;103643;-65
2023/09/20 04:51:00;;;;;;;1999.90;999.90;;;;;;;22.30;57.21;98404.47;4907789;28;103849;-65
2023/09/20 04:53:28;;;;;;;1999.90;999.90;;;;;;;21.80;58.90;98408.03;4922380;28;103401;-65
2023/09/20 04:55:57;;;;;;;1999.90;999.90;;;;;;;22.52;57.22;98404.28;4908989;28;102699;-65
2023/09/20 04:58:26;;;;;;;1999.90;999.90;;;;;;;22.46;56.67;98409.59;4930917;28;102772;-65
2023/09/20 05:00:55;;;;;;;1999.90;999.90;;;;;;;22.47;56.75;98416.66;4917882;28;105295;-65
2023/09/20 05:03:24;;;;;;;1999.90;999.90;;;;;;;22.85;55.57;98422.63;4908566;28;103239;-62
2023/09/20 05:05:53;;;;;;;1722.20;999.90;;;;;;;22.84;54.76;98412.88;4922307;28;102716;-65
2023/09/20 05:08:21;;;;;;;1514.28;999.90;;;;;;;22.90;55.01;98414.78;4930593;28;103627;-66
2023/09/20 05:10:49;;;;;;;1451.78;999.90;;;;;;;23.00;54.73;98413.41;4917098;28;104358;-62
2023/09/20 05:13:18;;;;;;;1405.20;999.90;;;;;;;23.00;54.12;98410.72;4905155;28;105842;-62
2023/09/20 05:15:50;;;;;;;1431.65;999.90;;;;;;;22.64;56.01;98422.63;4930930;27;102788;-62
2023/09/20 05:18:20;;;;;;;1408.30;999.90;;;;;;;22.58;55.63;98423.38;4938648;28;104037;-62
2023/09/20 05:20:49;;;;;;;1422.93;999.90;;;;;;;23.01;54.93;98411.53;4935032;28;106276;-66
2023/09/20 05:23:17;;;;;;;1351.05;999.90;;;;;;;23.00;54.38;98417.94;4915791;28;103124;-62
2023/09/20 05:25:48;;;;;;;1377.10;999.90;;;;;;;23.02;54.74;98416.72;4915282;28;103255;-62
2023/09/20 05:28:16;;;;;;;1366.80;999.90;;;;;;;23.10;54.29;98421.16;4923155;28;103586;-66
2023/09/20 05:30:45;;;;;;;1322.65;999.90;;;;;;;23.12;53.95;98416.38;4933601;28;104065;-66
2023/09/20 05:33:16;;;;;;;1334.15;999.90;;;;;;;23.32;53.75;98417.34;4921503;28;102931;-62
2023/09/20 05:35:47;;;;;;;1283.77;999.90;;;;;;;23.33;53.31;98429.78;4935685;28;103037;-62
2023/09/20 05:38:17;;;;;;;1297.30;999.90;;;;;;;23.44;53.41;98415.78;4914954;28;103611;-62
2023/09/20 05:40:45;;;;;;;1282.93;999.90;;;;;;;23.52;52.91;98415.59;4919453;28;104286;-62
2023/09/20 05:43:18;;;;;;;1242.93;999.90;;;;;;;23.62;52.74;98408.00;4918682;28;103348;-66
2023/09/20 05:45:46;;;;;;;1247.40;999.90;;;;;;;23.60;52.72;98420.03;4914673;28;102611;-65
2023/09/20 05:48:14;;;;;;;1254.97;999.90;;;;;;;23.67;52.78;98415.47;4915509;28;103611;-66
2023/09/20 05:50:42;;;;;;;1299.00;999.90;;;;;;;23.50;53.33;98414.16;4917907;28;102791;-66
2023/09/20 05:53:12;;;;;;;1286.65;999.90;;;;;;;23.72;52.80;98417.59;4911617;28;103239;-66
2023/09/20 05:55:42;;;;;;;1279.93;999.90;;;;;;;23.56;53.36;98424.13;4917199;28;102677;-66
2023/09/20 05:58:11;;;;;;;1297.00;999.90;;;;;;;23.54;53.70;98418.97;4915644;28;104066;-65
2023/09/20 06:00:40;;;;;;;1384.85;999.90;;;;;;;22.35;57.11;98419.00;4908874;28;104036;-65
2023/09/20 06:03:10;;;;;;;1531.85;999.90;;;;;;;22.24;58.19;98430.28;4911180;28;103316;-65
2023/09/20 06:05:39;;;;;;;1505.40;999.90;;;;;;;23.07;56.76;98427.72;4934471;28;102902;-64
2023/09/20 06:08:14;;;;;;;1456.60;999.90;;;;;;;23.31;56.61;98426.47;4919159;28;103354;-66
2023/09/20 06:10:44;;;;;;;1432.35;999.90;;;;;;;23.59;54.91;98432.66;4913158;28;103928;-65
2023/09/20 06:13:12;;;;;;;1398.85;999.90;;;;;;;23.86;53.69;98441.69;4912657;28;104087;-65
2023/09/20 06:15:40;;;;;;;1353.20;999.90;;;;;;;23.95;53.54;98436.97;4918877;28;102959;-65
2023/09/20 06:18:08;;;;;;;1371.83;999.90;;;;;;;23.24;55.89;98430.16;4914155;28;104073;-65
2023/09/20 06:20:45;;;;;;;1344.67;999.90;;;;;;;24.05;53.52;98429.34;4926216;28;103338;-65
2023/09/20 06:23:15;;;;;;;1309.93;999.90;;;;;;;24.42;52.68;98428.81;4930956;28;104195;-64
2023/09/20 06:25:46;;;;;;;1266.15;999.90;;;;;;;24.43;52.29;98427.81;4918681;28;102763;-65
2023/09/20 06:28:15;;;;;;;1241.60;999.90;;;;;;;24.94;51.54;98425.38;4918113;28;103606;-65
2023/09/20 06:30:43;;;;;;;1182.53;999.90;;;;;;;24.38;51.98;98421.34;4935216;28;104204;-64
2023/09/20 06:33:13;;;;;;;1179.93;999.90;;;;;;;24.47;51.72;98423.66;4919278;28;104574;-64
2023/09/20 06:35:43;;;;;;;1204.37;999.90;;;;;;;24.51;51.89;98424.91;4914951;28;102900;-64
2023/09/20 06:38:11;;;;;;;1164.93;999.90;;;;;;;24.82;51.26;98421.63;4914687;28;104218;-64
2023/09/20 06:40:41;;;;;;;1139.50;999.90;;;;;;;24.81;51.22;98411.88;4919506;28;103813;-64
2023/09/20 06:43:09;;;;;;;1108.93;999.90;;;;;;;24.91;50.58;98414.16;4917912;28;103456;-64
2023/09/20 06:45:50;;;;;;;1044.18;979.03;;;;;;;24.98;50.26;98407.72;4918029;28;102731;-64
2023/09/20 06:48:22;;;;;;;1038.47;974.50;;;;;;;24.92;50.69;98411.25;4922008;28;103758;-64
2023/09/20 06:50:55;;;;;;;1040.77;977.30;;;;;;;24.95;50.29;98404.59;4914289;28;103687;-65
2023/09/20 06:53:23;;;;;;;1033.43;970.15;;;;;;;24.98;50.02;98399.63;4924794;28;103180;-64
2023/09/20 06:55:54;;;;;;;983.40;926.60;;;;;;;25.35;49.71;98411.59;4918968;28;102964;-64
2023/09/20 06:58:24;;;;;;;1002.85;943.97;;;;;;;25.54;49.46;98413.47;4925458;28;102782;-64
2023/09/20 07:00:53;;;;;;;978.00;921.28;;;;;;;25.79;49.03;98405.47;4923729;28;104209;-65
2023/09/20 07:03:22;;;;;;;943.65;889.33;;;;;;;25.81;48.50;98400.66;4920961;28;103382;-65
2023/09/20 07:05:52;;;;;;;926.75;874.90;;;;;;;26.38;47.92;98391.66;4916283;28;102839;-63
2023/09/20 07:08:23;;;;;;;898.72;849.38;;;;;;;26.50;47.33;98393.41;4916016;28;104564;-63
2023/09/20 07:11:00;;;;;;;896.05;847.28;;;;;;;26.39;47.64;98398.69;4921212;28;103899;-63
2023/09/20 07:13:40;;;;;;;873.10;826.67;;;;;;;26.88;46.83;98385.25;4912602;28;103662;-65
2023/09/20 07:16:10;;;;;;;893.92;845.88;;;;;;;26.51;47.45;98388.84;4931134;28;102631;-62
2023/09/20 07:18:44;;;;;;;875.05;827.75;;;;;;;27.12;46.80;98382.75;4914218;28;102832;-62
2023/09/20 07:21:15;;;;;;;828.03;784.03;;;;;;;27.33;46.49;98385.84;4917888;28;103807;-62
2023/09/20 07:23:43;;;;;;;844.03;799.75;;;;;;;26.14;48.79;98378.88;4922935;28;103310;-66
2023/09/20 07:26:14;;;;;;;873.20;826.75;;;;;;;26.56;48.07;98386.28;4914471;28;103402;-66
2023/09/20 07:28:43;;;;;;;864.67;819.38;;;;;;;26.95;46.85;98377.03;4910832;28;102934;-65
2023/09/20 07:31:11;;;;;;;846.88;802.42;;;;;;;27.27;46.27;98385.91;4909581;28;104182;-66
2023/09/20 07:33:41;;;;;;;844.20;800.00;;;;;;;27.17;46.32;98377.47;4917882;28;103363;-66
2023/09/20 07:36:11;;;;;;;805.20;762.33;;;;;;;27.51;45.43;98376.88;4912671;28;103089;-66
2023/09/20 07:38:42;;;;;;;790.63;748.23;;;;;;;27.65;44.94;98378.41;4912409;28;104126;-66
2023/09/20 07:41:13;;;;;;;768.90;728.40;;;;;;;27.76;44.83;98369.53;4909749;28;104124;-65
2023/09/20 07:43:45;;;;;;;795.65;751.95;;;;;;;27.96;44.67;98374.66;4902331;28;103300;-59
2023/09/20 07:46:14;;;;;;;784.83;742.08;;;;;;;28.21;44.01;98369.97;4923738;28;102761;-66
2023/09/20 07:48:48;;;;;;;778.40;735.88;;;;;;;28.24;43.97;98371.41;4912132;28;103057;-65
2023/09/20 07:51:23;;;;;;;780.47;738.07;;;;;;;28.28;44.24;98367.97;4914928;28;102951;-60
2023/09/20 07:53:53;;;;;;;794.47;751.00;;;;;;;28.37;44.08;98357.63;4915352;28;103658;-64
2023/09/20 07:56:29;;;;;;;781.70;738.83;;;;;;;28.53;44.06;98359.66;4920420;28;102929;-63
2023/09/20 07:58:59;;;;;;;802.35;758.08;;;;;;;28.81;43.47;98362.56;4935209;28;103104;-63
2023/09/20 08:01:32;;;;;;;776.10;734.17;;;;;;;28.87;43.54;98356.19;4915180;28;104495;-60
2023/09/20 08:04:00;;;;;;;752.22;712.50;;;;;;;29.31;42.93;98358.31;4916525;28;103168;-59
2023/09/20 08:06:32;;;;;;;765.63;723.90;;;;;;;28.68;43.73;98357.34;4910562;28;102937;-60
2023/09/20 08:09:01;;;;;;;781.58;738.92;;;;;;;28.79;43.44;98342.94;4916420;28;103149;-60
2023/09/20 08:11:30;;;;;;;759.72;718.50;;;;;;;29.84;42.75;98347.22;4911099;28;104354;-59
2023/09/20 08:14:01;;;;;;;764.72;723.20;;;;;;;29.38;42.03;98336.44;4917137;28;106107;-62
2023/09/20 08:16:32;;;;;;;748.42;708.67;;;;;;;30.30;42.31;98334.47;4920053;28;102847;-61
2023/09/20 08:19:21;;;;;;;719.35;681.38;;;;;;;30.68;41.04;98340.03;4933598;28;102708;-62
2023/09/20 08:21:51;;;;;;;684.83;649.03;;;;;;;29.91;41.36;98341.63;4917176;28;103658;-59
2023/09/20 09:00:42;;;;;;;337.30;321.27;;;;;;;34.20;34.66;98354.72;4919753;28;102735;-60
2023/09/20 09:03:12;;;;;;;355.25;338.55;;;;;;;32.92;35.72;98350.75;4915580;28;103013;-66
2023/09/20 09:05:40;;;;;;;301.33;287.30;;;;;;;33.23;34.84;98349.91;4932195;28;104137;-60
2023/09/20 09:08:13;;;;;;;303.05;288.73;;;;;;;33.92;34.62;98341.47;4911935;28;106640;-62
2023/09/20 09:10:41;;;;;;;246.38;234.63;;;;;;;34.63;34.30;98335.06;4918751;28;102886;-61
2023/09/20 09:13:09;;;;;;;235.00;223.80;;;;;;;34.50;34.19;98334.78;4913145;28;102856;-60
2023/09/20 09:15:47;;;;;;;203.55;194.00;;;;;;;34.56;33.20;98331.75;4915938;28;104079;-60
2023/09/20 09:18:18;;;;;;;204.07;193.88;;;;;;;34.32;33.69;98331.47;4911351;28;104308;-66
2023/09/20 09:20:51;;;;;;;220.33;209.83;;;;;;;34.39;34.13;98329.25;4915558;28;103255;-66
2023/09/20 09:23:32;;;;;;;212.48;202.40;;;;;;;34.85;33.97;98323.81;4918584;28;102968;-61
2023/09/20 09:26:03;;;;;;;188.70;179.25;;;;;;;34.42;33.64;98327.06;4923239;28;104220;-65
2023/09/20 09:28:32;;;;;;;191.95;182.68;;;;;;;35.07;33.55;98320.78;4932913;28;104487;-65
2023/09/20 09:31:04;;;;;;;207.57;197.50;;;;;;;34.55;34.28;98324.63;4916676;28;102709;-66
2023/09/20 09:33:35;;;;;;;194.70;185.80;;;;;;;34.97;33.24;98320.78;4915585;28;106245;-66
2023/09/20 09:36:04;;;;;;;188.70;180.03;;;;;;;33.85;33.51;98321.72;4914523;28;104661;-61
2023/09/20 09:41:18;;;;;;;179.13;170.77;;;;;;;34.30;33.94;98311.69;4918595;28;103007;-62
2023/09/20 09:43:58;;;;;;;156.00;149.13;;;;;;;34.91;33.07;98311.75;4918893;28;102795;-67
2023/09/20 09:46:27;;;;;;;165.48;158.20;;;;;;;35.08;32.59;98305.97;4925537;28;104435;-67
2023/09/20 09:48:57;;;;;;;129.05;123.35;;;;;;;35.49;32.18;98302.00;4925768;28;103338;-61
2023/09/20 09:51:25;;;;;;;141.40;135.10;;;;;;;35.06;32.51;98303.47;4920850;28;103367;-67
2023/09/20 09:53:54;;;;;;;140.07;133.93;;;;;;;35.53;32.42;98296.78;4921339;28;102816;-64
2023/09/20 09:56:25;;;;;;;146.30;139.33;;;;;;;33.68;34.16;98289.09;4911894;28;103141;-61
2023/09/20 09:58:54;;;;;;;145.68;139.13;;;;;;;33.21;33.91;98280.91;4914074;28;103350;-62
2023/09/20 10:01:25;;;;;;;139.80;133.23;;;;;;;34.46;34.31;98279.66;4916584;28;102868;-67
2023/09/20 10:04:00;;;;;;;141.00;134.70;;;;;;;34.18;33.28;98277.44;4929631;28;104099;-61
2023/09/20 10:06:37;;;;;;;134.77;128.88;;;;;;;34.48;32.61;98263.75;4906606;28;104094;-65
2023/09/20 10:09:11;;;;;;;119.60;114.43;;;;;;;34.32;32.09;98270.31;4929585;28;103288;-61
2023/09/20 10:11:41;;;;;;;144.57;138.10;;;;;;;33.19;33.72;98266.66;4912254;28;103051;-67
2023/09/20 10:14:10;;;;;;;129.15;123.55;;;;;;;34.28;32.50;98263.72;4910217;28;102712;-64
2023/09/20 10:16:42;;;;;;;107.27;102.57;;;;;;;34.39;32.23;98265.38;4916516;28;103324;-61
2023/09/20 10:19:14;;;;;;;107.55;103.00;;;;;;;34.78;32.07;98255.50;4910811;28;103184;-67
2023/09/20 10:22:01;;;;;;;108.20;103.53;;;;;;;34.80;31.51;98256.06;4913595;28;103342;-61
2023/09/20 10:24:31;;;;;;;68.60;65.55;;;;;;;34.61;31.31;98244.00;4925182;28;103902;-62
2023/09/20 10:27:03;;;;;;;69.53;66.50;;;;;;;34.65;31.67;98252.50;4912961;28;104164;-67
2023/09/20 10:29:33;;;;;;;71.57;68.45;;;;;;;35.06;31.04;98259.53;4911594;28;103811;-61
2023/09/20 10:32:29;;;;;;;50.20;47.80;;;;;;;34.29;31.29;98249.78;4917126;28;103270;-66
2023/09/20 10:35:19;;;;;;;58.28;55.65;;;;;;;34.27;31.33;98245.66;4930008;28;104287;-65
2023/09/20 10:38:23;;;;;;;51.90;49.67;;;;;;;33.61;31.09;98242.78;4918715;28;103434;-60
2023/09/20 10:41:03;;;;;;;52.07;49.70;;;;;;;33.50;30.69;98240.25;4928238;28;104319;-65
2023/09/20 10:43:54;;;;;;;57.95;55.40;;;;;;;34.41;29.15;98238.53;4929071;28;102665;-66
2023/09/20 10:46:23;;;;;;;62.80;60.05;;;;;;;35.15;29.54;98224.97;4910984;28;103820;-60
2023/09/20 10:48:56;;;;;;;109.60;105.18;;;;;;;34.96;28.29;98223.91;4927048;28;103273;-60
2023/09/20 10:51:48;;;;;;;125.03;120.03;;;;;;;35.38;27.51;98218.84;4910837;28;103195;-60
2023/09/20 10:54:25;;;;;;;108.18;103.78;;;;;;;34.38;28.53;98209.75;4928467;28;102668;-65
2023/09/20 10:57:07;;;;;;;101.13;97.03;;;;;;;35.07;27.91;98211.00;4912903;28;102851;-62
2023/09/20 10:59:40;;;;;;;174.43;167.75;;;;;;;35.40;27.82;98204.81;4917666;28;103649;-65
2023/09/20 11:02:12;;;;;;;127.90;122.93;;;;;;;34.92;27.91;98209.13;4921596;28;103180;-65
2023/09/20 11:04:41;;;;;;;183.37;176.23;;;;;;;35.85;26.62;98201.00;4908699;28;102841;-61
2023/09/20 11:07:10;;;;;;;254.75;245.73;;;;;;;36.74;25.89;98195.06;4919290;28;104485;-62
2023/09/20 11:09:39;;;;;;;215.65;207.65;;;;;;;35.96;26.08;98181.41;4933741;28;103371;-64
2023/09/20 11:12:11;;;;;;;183.25;176.40;;;;;;;34.36;27.06;98186.41;4913419;28;103055;-61
2023/09/20 11:14:42;;;;;;;150.93;145.23;;;;;;;35.54;27.10;98178.38;4913791;28;102579;-65
2023/09/20 11:17:13;;;;;;;165.23;158.90;;;;;;;35.35;27.22;98169.16;4919791;28;104300;-64
2023/09/20 11:19:42;;;;;;;172.63;166.02;;;;;;;36.06;27.13;98169.56;4929217;28;104251;-65
2023/09/20 11:22:14;;;;;;;174.23;167.57;;;;;;;35.66;27.33;98176.13;4915174;28;103219;-61
2023/09/20 11:24:44;;;;;;;200.52;193.05;;;;;;;36.39;26.79;98173.38;4919512;28;102901;-64
2023/09/20 11:27:16;;;;;;;219.40;211.30;;;;;;;36.25;26.70;98167.72;4913787;28;103980;-64
2023/09/20 11:29:44;;;;;;;300.57;290.03;;;;;;;37.15;24.85;98165.97;4912783;28;103304;-61
2023/09/20 11:32:14;;;;;;;266.77;257.27;;;;;;;36.46;26.20;98163.69;4916775;28;104394;-64
2023/09/20 11:34:43;;;;;;;290.48;280.33;;;;;;;36.38;24.83;98161.53;4936418;27;102897;-63
2023/09/20 11:37:15;;;;;;;298.53;287.97;;;;;;;35.92;24.95;98158.38;4923160;28;102998;-61
2023/09/20 11:39:46;;;;;;;287.02;277.05;;;;;;;35.90;24.46;98159.78;4912274;28;104803;-65
2023/09/20 11:42:27;;;;;;;301.45;291.02;;;;;;;35.81;24.55;98156.00;4916100;28;103253;-61
2023/09/20 11:45:05;;;;;;;300.40;290.00;;;;;;;36.75;24.70;98155.41;4914883;28;102976;-66